ECIZA LESB-LESB
Flight info
| Callsign | ECIZA |
|---|---|
| Flight time | 1h 28m |
| Altitude | 7000 |
| Route | VFR |
| Aircraft | SR22/L-SDGRY/S |
Departure
| Time | 2026-05-01 13:47 |
|---|---|
| Airport | Son Bonet Airfield (LESB) |
Arrival
| Time | 2026-05-01 15:15 |
|---|---|
| Airport | Son Bonet Airfield (LESB) |
| Time | Latitude | Longitude | Altitude | Speed | Heading |
|---|---|---|---|---|---|
| 2026-05-01 13:36 | 39.60309 | 2.70731 | 161 ft | 0 kts | 140° |
| 2026-05-01 13:42 | 39.60308 | 2.70731 | 162 ft | 0 kts | 140° |
| 2026-05-01 13:43 | 39.60298 | 2.70743 | 162 ft | 0 kts | 143° |
| 2026-05-01 13:43 | 39.60270 | 2.70717 | 161 ft | 3 kts | 223° |
| 2026-05-01 13:43 | 39.60260 | 2.70702 | 161 ft | 4 kts | 235° |
| 2026-05-01 13:43 | 39.60210 | 2.70620 | 159 ft | 12 kts | 243° |
| 2026-05-01 13:44 | 39.60178 | 2.70569 | 157 ft | 8 kts | 231° |
| 2026-05-01 13:44 | 39.60092 | 2.70426 | 149 ft | 19 kts | 229° |
| 2026-05-01 13:44 | 39.60014 | 2.70299 | 144 ft | 18 kts | 233° |
| 2026-05-01 13:44 | 39.59928 | 2.70164 | 137 ft | 19 kts | 233° |
| 2026-05-01 13:45 | 39.59855 | 2.70045 | 133 ft | 15 kts | 230° |
| 2026-05-01 13:45 | 39.59814 | 2.69996 | 132 ft | 6 kts | 180° |
| 2026-05-01 13:45 | 39.59765 | 2.70044 | 132 ft | 14 kts | 109° |
| 2026-05-01 13:45 | 39.59774 | 2.70074 | 132 ft | 0 kts | 44° |
| 2026-05-01 13:46 | 39.59853 | 2.70212 | 138 ft | 53 kts | 49° |
| 2026-05-01 13:46 | 39.60212 | 2.70784 | 266 ft | 95 kts | 50° |
| 2026-05-01 13:46 | 39.60654 | 2.71468 | 714 ft | 109 kts | 40° |
| 2026-05-01 13:47 | 39.61411 | 2.71293 | 1033 ft | 131 kts | 307° |
| 2026-05-01 13:47 | 39.61353 | 2.70251 | 1124 ft | 111 kts | 234° |
| 2026-05-01 13:47 | 39.60988 | 2.69510 | 1099 ft | 93 kts | 235° |
| 2026-05-01 13:47 | 39.60684 | 2.68854 | 979 ft | 93 kts | 235° |
| 2026-05-01 13:48 | 39.60296 | 2.68047 | 1195 ft | 118 kts | 234° |
| 2026-05-01 13:48 | 39.59794 | 2.67031 | 1090 ft | 147 kts | 234° |
| 2026-05-01 13:48 | 39.59197 | 2.65868 | 1018 ft | 157 kts | 235° |
| 2026-05-01 13:48 | 39.58704 | 2.64578 | 1000 ft | 163 kts | 244° |
| 2026-05-01 13:49 | 39.58243 | 2.63203 | 996 ft | 168 kts | 246° |
| 2026-05-01 13:49 | 39.57835 | 2.61772 | 1011 ft | 171 kts | 251° |
| 2026-05-01 13:49 | 39.57455 | 2.60335 | 1247 ft | 158 kts | 249° |
| 2026-05-01 13:49 | 39.57120 | 2.58997 | 1687 ft | 165 kts | 250° |
| 2026-05-01 13:50 | 39.56754 | 2.57542 | 2164 ft | 176 kts | 250° |
| 2026-05-01 13:50 | 39.56342 | 2.55921 | 2123 ft | 200 kts | 250° |
| 2026-05-01 13:50 | 39.55893 | 2.54168 | 2104 ft | 203 kts | 250° |
| 2026-05-01 13:50 | 39.55451 | 2.52459 | 2090 ft | 198 kts | 250° |
| 2026-05-01 13:51 | 39.55021 | 2.50780 | 2089 ft | 201 kts | 250° |
| 2026-05-01 13:51 | 39.54575 | 2.49038 | 2093 ft | 207 kts | 251° |
| 2026-05-01 13:51 | 39.54111 | 2.47267 | 2138 ft | 209 kts | 250° |
| 2026-05-01 13:51 | 39.53608 | 2.45362 | 2144 ft | 212 kts | 251° |
| 2026-05-01 13:52 | 39.53154 | 2.43629 | 2054 ft | 195 kts | 250° |
| 2026-05-01 13:52 | 39.52744 | 2.42044 | 2065 ft | 179 kts | 250° |
| 2026-05-01 13:52 | 39.52347 | 2.40516 | 2070 ft | 172 kts | 250° |
| 2026-05-01 13:52 | 39.51985 | 2.39117 | 2068 ft | 160 kts | 250° |
| 2026-05-01 13:53 | 39.51632 | 2.37755 | 2072 ft | 158 kts | 251° |
| 2026-05-01 13:53 | 39.50934 | 2.35059 | 2073 ft | 157 kts | 251° |
| 2026-05-01 13:53 | 39.50587 | 2.33724 | 2071 ft | 156 kts | 250° |
| 2026-05-01 13:54 | 39.50244 | 2.32401 | 2070 ft | 155 kts | 250° |
| 2026-05-01 13:54 | 39.49903 | 2.31080 | 2069 ft | 155 kts | 250° |
| 2026-05-01 13:54 | 39.49563 | 2.29766 | 2069 ft | 154 kts | 250° |
| 2026-05-01 13:54 | 39.49220 | 2.28446 | 2069 ft | 153 kts | 250° |
| 2026-05-01 13:55 | 39.48882 | 2.27149 | 2067 ft | 153 kts | 250° |
| 2026-05-01 13:55 | 39.48539 | 2.25839 | 2067 ft | 152 kts | 250° |
| 2026-05-01 13:55 | 39.48199 | 2.24540 | 2068 ft | 152 kts | 250° |
| 2026-05-01 13:55 | 39.47863 | 2.23254 | 2070 ft | 151 kts | 250° |
| 2026-05-01 13:56 | 39.47530 | 2.21969 | 2069 ft | 151 kts | 250° |
| 2026-05-01 13:56 | 39.47116 | 2.20739 | 2069 ft | 149 kts | 243° |
| 2026-05-01 13:56 | 39.46674 | 2.19523 | 2067 ft | 149 kts | 243° |
| 2026-05-01 13:56 | 39.46225 | 2.18303 | 2064 ft | 149 kts | 243° |
| 2026-05-01 13:57 | 39.45779 | 2.17094 | 2063 ft | 148 kts | 243° |
| 2026-05-01 13:57 | 39.45485 | 2.16295 | 2063 ft | 148 kts | 243° |
| 2026-05-01 13:57 | 39.44865 | 2.14723 | 2059 ft | 146 kts | 231° |
| 2026-05-01 13:57 | 39.44270 | 2.13654 | 2061 ft | 145 kts | 232° |
| 2026-05-01 13:58 | 39.43675 | 2.12590 | 2060 ft | 145 kts | 232° |
| 2026-05-01 13:58 | 39.43091 | 2.11543 | 2060 ft | 144 kts | 232° |
| 2026-05-01 13:58 | 39.42503 | 2.10490 | 2060 ft | 144 kts | 232° |
| 2026-05-01 13:58 | 39.41918 | 2.09438 | 2063 ft | 144 kts | 232° |
| 2026-05-01 13:59 | 39.41330 | 2.08383 | 2064 ft | 144 kts | 232° |
| 2026-05-01 13:59 | 39.40745 | 2.07334 | 2065 ft | 143 kts | 232° |
| 2026-05-01 13:59 | 39.40158 | 2.06290 | 2064 ft | 143 kts | 232° |
| 2026-05-01 13:59 | 39.39578 | 2.05262 | 2063 ft | 143 kts | 232° |
| 2026-05-01 14:00 | 39.38986 | 2.04212 | 2062 ft | 143 kts | 232° |
| 2026-05-01 14:00 | 39.38404 | 2.03183 | 2061 ft | 143 kts | 232° |
| 2026-05-01 14:00 | 39.37817 | 2.02149 | 2060 ft | 143 kts | 232° |
| 2026-05-01 14:00 | 39.37223 | 2.01104 | 2059 ft | 144 kts | 232° |
| 2026-05-01 14:01 | 39.36631 | 2.00064 | 2059 ft | 147 kts | 232° |
| 2026-05-01 14:01 | 39.36015 | 1.98983 | 2056 ft | 151 kts | 232° |
| 2026-05-01 14:01 | 39.35382 | 1.97874 | 2054 ft | 155 kts | 232° |
| 2026-05-01 14:01 | 39.34731 | 1.96738 | 2052 ft | 158 kts | 232° |
| 2026-05-01 14:02 | 39.34068 | 1.95583 | 2051 ft | 161 kts | 232° |
| 2026-05-01 14:02 | 39.33401 | 1.94422 | 2051 ft | 163 kts | 232° |
| 2026-05-01 14:02 | 39.32722 | 1.93241 | 2052 ft | 165 kts | 232° |
| 2026-05-01 14:02 | 39.31982 | 1.91961 | 2080 ft | 199 kts | 232° |
| 2026-05-01 14:03 | 39.31047 | 1.90367 | 2085 ft | 241 kts | 232° |
| 2026-05-01 14:03 | 39.29997 | 1.88578 | 2070 ft | 259 kts | 232° |
| 2026-05-01 14:03 | 39.28906 | 1.86722 | 2054 ft | 259 kts | 232° |
| 2026-05-01 14:03 | 39.27821 | 1.84878 | 2051 ft | 258 kts | 232° |
| 2026-05-01 14:04 | 39.26734 | 1.83035 | 2050 ft | 257 kts | 232° |
| 2026-05-01 14:04 | 39.25649 | 1.81191 | 2049 ft | 257 kts | 232° |
| 2026-05-01 14:04 | 39.24572 | 1.79362 | 2049 ft | 257 kts | 232° |
| 2026-05-01 14:04 | 39.23847 | 1.78134 | 2049 ft | 257 kts | 232° |
| 2026-05-01 14:05 | 39.22401 | 1.75692 | 2048 ft | 256 kts | 232° |
| 2026-05-01 14:05 | 39.21320 | 1.73870 | 2047 ft | 257 kts | 232° |
| 2026-05-01 14:05 | 39.20242 | 1.72058 | 2047 ft | 256 kts | 232° |
| 2026-05-01 14:05 | 39.19152 | 1.70222 | 2048 ft | 256 kts | 232° |
| 2026-05-01 14:06 | 39.18103 | 1.68376 | 2036 ft | 257 kts | 241° |
| 2026-05-01 14:06 | 39.17285 | 1.66322 | 2049 ft | 256 kts | 243° |
| 2026-05-01 14:06 | 39.16525 | 1.64274 | 2039 ft | 257 kts | 251° |
| 2026-05-01 14:06 | 39.15989 | 1.62067 | 2053 ft | 256 kts | 253° |
| 2026-05-01 14:07 | 39.15468 | 1.59882 | 2055 ft | 256 kts | 253° |
| 2026-05-01 14:07 | 39.14943 | 1.57694 | 2051 ft | 257 kts | 253° |
| 2026-05-01 14:07 | 39.14420 | 1.55532 | 2047 ft | 237 kts | 253° |
| 2026-05-01 14:08 | 39.13547 | 1.51965 | 2035 ft | 194 kts | 253° |
| 2026-05-01 14:08 | 39.13142 | 1.50330 | 2048 ft | 191 kts | 253° |
| 2026-05-01 14:08 | 39.12741 | 1.48714 | 2047 ft | 189 kts | 253° |
| 2026-05-01 14:08 | 39.12335 | 1.47096 | 2047 ft | 188 kts | 253° |
| 2026-05-01 14:09 | 39.11942 | 1.45510 | 2058 ft | 186 kts | 253° |
| 2026-05-01 14:09 | 39.11332 | 1.44054 | 2057 ft | 185 kts | 233° |
| 2026-05-01 14:09 | 39.10340 | 1.42935 | 1862 ft | 192 kts | 207° |
| 2026-05-01 14:09 | 39.09132 | 1.42325 | 1913 ft | 186 kts | 198° |
| 2026-05-01 14:10 | 39.07952 | 1.41691 | 1892 ft | 184 kts | 203° |
| 2026-05-01 14:10 | 39.06752 | 1.40954 | 1788 ft | 189 kts | 211° |
| 2026-05-01 14:10 | 39.05696 | 1.39965 | 1794 ft | 188 kts | 220° |
| 2026-05-01 14:10 | 39.04733 | 1.38825 | 1688 ft | 191 kts | 225° |
| 2026-05-01 14:11 | 39.03792 | 1.37722 | 1635 ft | 181 kts | 218° |
| 2026-05-01 14:11 | 39.01822 | 1.35681 | 1241 ft | 179 kts | 217° |
| 2026-05-01 14:11 | 39.00839 | 1.34674 | 1145 ft | 181 kts | 215° |
| 2026-05-01 14:12 | 38.99710 | 1.34545 | 1148 ft | 164 kts | 157° |
| 2026-05-01 14:12 | 38.98683 | 1.34947 | 1185 ft | 144 kts | 167° |
| 2026-05-01 14:12 | 38.97800 | 1.34996 | 1311 ft | 114 kts | 179° |
| 2026-05-01 14:12 | 38.96975 | 1.34916 | 1071 ft | 123 kts | 182° |
| 2026-05-01 14:13 | 38.96122 | 1.34774 | 1022 ft | 127 kts | 183° |
| 2026-05-01 14:13 | 38.95527 | 1.34695 | 981 ft | 131 kts | 183° |
| 2026-05-01 14:13 | 38.94216 | 1.34458 | 1002 ft | 146 kts | 186° |
| 2026-05-01 14:13 | 38.93199 | 1.34481 | 1102 ft | 149 kts | 172° |
| 2026-05-01 14:14 | 38.92166 | 1.34665 | 1119 ft | 152 kts | 164° |
| 2026-05-01 14:14 | 38.91133 | 1.35043 | 1112 ft | 157 kts | 156° |
| 2026-05-01 14:14 | 38.90080 | 1.35623 | 984 ft | 166 kts | 152° |
| 2026-05-01 14:14 | 38.88986 | 1.35647 | 1032 ft | 162 kts | 203° |
| 2026-05-01 14:15 | 38.88183 | 1.34737 | 1080 ft | 156 kts | 232° |
| 2026-05-01 14:15 | 38.87563 | 1.33622 | 1026 ft | 151 kts | 236° |
| 2026-05-01 14:15 | 38.86729 | 1.32973 | 785 ft | 144 kts | 155° |
| 2026-05-01 14:15 | 38.86258 | 1.33788 | 632 ft | 109 kts | 97° |
| 2026-05-01 14:16 | 38.86305 | 1.34631 | 413 ft | 88 kts | 79° |
| 2026-05-01 14:16 | 38.86509 | 1.35336 | 160 ft | 79 kts | 77° |
| 2026-05-01 14:16 | 38.86727 | 1.35969 | 53 ft | 77 kts | 62° |
| 2026-05-01 14:16 | 38.86947 | 1.36497 | 24 ft | 57 kts | 63° |
| 2026-05-01 14:17 | 38.87077 | 1.36796 | 24 ft | 20 kts | 59° |
| 2026-05-01 14:17 | 38.87155 | 1.36999 | 24 ft | 31 kts | 65° |
| 2026-05-01 14:17 | 38.87245 | 1.37220 | 24 ft | 24 kts | 62° |
| 2026-05-01 14:17 | 38.87326 | 1.37376 | 24 ft | 16 kts | 38° |
| 2026-05-01 14:18 | 38.87397 | 1.37452 | 24 ft | 11 kts | 33° |
| 2026-05-01 14:18 | 38.87457 | 1.37495 | 24 ft | 14 kts | 32° |
| 2026-05-01 14:18 | 38.87505 | 1.37540 | 24 ft | 7 kts | 34° |
| 2026-05-01 14:18 | 38.87535 | 1.37536 | 24 ft | 9 kts | 318° |
| 2026-05-01 14:19 | 38.87530 | 1.37450 | 24 ft | 11 kts | 239° |
| 2026-05-01 14:19 | 38.87497 | 1.37369 | 24 ft | 9 kts | 240° |
| 2026-05-01 14:19 | 38.87462 | 1.37288 | 24 ft | 11 kts | 237° |
| 2026-05-01 14:19 | 38.87399 | 1.37142 | 24 ft | 19 kts | 238° |
| 2026-05-01 14:20 | 38.87340 | 1.37001 | 24 ft | 15 kts | 249° |
| 2026-05-01 14:20 | 38.87264 | 1.36808 | 24 ft | 9 kts | 247° |
| 2026-05-01 14:20 | 38.87222 | 1.36704 | 24 ft | 17 kts | 247° |
| 2026-05-01 14:21 | 38.87150 | 1.36539 | 24 ft | 20 kts | 245° |
| 2026-05-01 14:21 | 38.87088 | 1.36391 | 24 ft | 17 kts | 243° |
| 2026-05-01 14:21 | 38.87040 | 1.36263 | 24 ft | 14 kts | 243° |
| 2026-05-01 14:22 | 38.86923 | 1.35986 | 24 ft | 16 kts | 242° |
| 2026-05-01 14:22 | 38.86872 | 1.35864 | 24 ft | 14 kts | 245° |
| 2026-05-01 14:22 | 38.86833 | 1.35770 | 24 ft | 10 kts | 241° |
| 2026-05-01 14:22 | 38.86797 | 1.35764 | 24 ft | 4 kts | 148° |
| 2026-05-01 14:23 | 38.86775 | 1.35777 | 24 ft | 1 kts | 154° |
| 2026-05-01 14:40 | 38.86774 | 1.35777 | 24 ft | 0 kts | 158° |
| 2026-05-01 14:41 | 38.86774 | 1.35778 | 24 ft | 0 kts | 156° |
| 2026-05-01 14:41 | 38.86770 | 1.35780 | 24 ft | 7 kts | 154° |
| 2026-05-01 14:42 | 38.86723 | 1.35896 | 24 ft | 20 kts | 107° |
| 2026-05-01 14:42 | 38.86724 | 1.35961 | 24 ft | 0 kts | 56° |
| 2026-05-01 14:42 | 38.86724 | 1.35962 | 24 ft | 0 kts | 57° |
| 2026-05-01 14:43 | 38.86839 | 1.36246 | 25 ft | 75 kts | 65° |
| 2026-05-01 14:43 | 38.87156 | 1.37007 | 180 ft | 117 kts | 62° |
| 2026-05-01 14:43 | 38.87575 | 1.38003 | 718 ft | 132 kts | 65° |
| 2026-05-01 14:43 | 38.87513 | 1.39150 | 1266 ft | 145 kts | 107° |
| 2026-05-01 14:44 | 38.87194 | 1.40452 | 1727 ft | 159 kts | 102° |
| 2026-05-01 14:44 | 38.85725 | 1.42346 | 2658 ft | 158 kts | 159° |
| 2026-05-01 14:44 | 38.84663 | 1.42494 | 2293 ft | 159 kts | 177° |
| 2026-05-01 14:45 | 38.83587 | 1.42186 | 1906 ft | 159 kts | 199° |
| 2026-05-01 14:45 | 38.81519 | 1.41513 | 1409 ft | 132 kts | 180° |
| 2026-05-01 14:45 | 38.80636 | 1.41435 | 1293 ft | 121 kts | 178° |
| 2026-05-01 14:46 | 38.79823 | 1.41414 | 1132 ft | 117 kts | 177° |
| 2026-05-01 14:46 | 38.77982 | 1.41407 | 910 ft | 160 kts | 173° |
| 2026-05-01 14:46 | 38.76872 | 1.41613 | 887 ft | 155 kts | 167° |
| 2026-05-01 14:47 | 38.75915 | 1.41916 | 815 ft | 139 kts | 160° |
| 2026-05-01 14:47 | 38.74975 | 1.42306 | 764 ft | 140 kts | 157° |
| 2026-05-01 14:47 | 38.74105 | 1.42685 | 723 ft | 124 kts | 159° |
| 2026-05-01 14:48 | 38.73249 | 1.44261 | 554 ft | 116 kts | 81° |
| 2026-05-01 14:48 | 38.73402 | 1.45337 | 443 ft | 135 kts | 78° |
| 2026-05-01 14:48 | 38.73815 | 1.48091 | 1019 ft | 177 kts | 81° |
| 2026-05-01 14:49 | 38.74022 | 1.51395 | 1347 ft | 162 kts | 87° |
| 2026-05-01 14:49 | 38.74474 | 1.53966 | 1419 ft | 132 kts | 66° |
| 2026-05-01 14:50 | 38.75180 | 1.55233 | 1352 ft | 134 kts | 53° |
| 2026-05-01 14:50 | 38.76565 | 1.57687 | 1405 ft | 126 kts | 53° |
| 2026-05-01 14:51 | 38.76976 | 1.58465 | 1790 ft | 91 kts | 59° |
| 2026-05-01 14:51 | 38.77982 | 1.60666 | 1651 ft | 185 kts | 60° |
| 2026-05-01 14:52 | 38.79344 | 1.63781 | 1969 ft | 201 kts | 61° |
| 2026-05-01 14:52 | 38.80004 | 1.65303 | 2352 ft | 179 kts | 62° |
| 2026-05-01 14:52 | 38.81113 | 1.67853 | 2082 ft | 171 kts | 62° |
| 2026-05-01 14:53 | 38.81686 | 1.69193 | 2052 ft | 172 kts | 62° |
| 2026-05-01 14:53 | 38.82261 | 1.70550 | 2025 ft | 174 kts | 62° |
| 2026-05-01 14:53 | 38.82873 | 1.72008 | 2012 ft | 189 kts | 62° |
| 2026-05-01 14:53 | 38.83496 | 1.73507 | 2048 ft | 197 kts | 63° |
| 2026-05-01 14:54 | 38.84153 | 1.75105 | 2051 ft | 205 kts | 63° |
| 2026-05-01 14:54 | 38.84819 | 1.76744 | 2051 ft | 210 kts | 63° |
| 2026-05-01 14:54 | 38.85495 | 1.78430 | 2049 ft | 213 kts | 64° |
| 2026-05-01 14:54 | 38.86172 | 1.80134 | 2047 ft | 216 kts | 64° |
| 2026-05-01 14:55 | 38.86846 | 1.81851 | 2047 ft | 217 kts | 64° |
| 2026-05-01 14:55 | 38.87520 | 1.83583 | 2045 ft | 219 kts | 64° |
| 2026-05-01 14:55 | 38.88199 | 1.85344 | 2044 ft | 220 kts | 64° |
| 2026-05-01 14:55 | 38.88874 | 1.87113 | 2043 ft | 220 kts | 64° |
| 2026-05-01 14:56 | 38.89538 | 1.88870 | 2042 ft | 220 kts | 65° |
| 2026-05-01 14:56 | 38.90207 | 1.90657 | 2042 ft | 220 kts | 65° |
| 2026-05-01 14:56 | 38.90860 | 1.92422 | 2042 ft | 220 kts | 65° |
| 2026-05-01 14:56 | 38.91510 | 1.94195 | 2042 ft | 220 kts | 65° |
| 2026-05-01 14:57 | 38.92159 | 1.95984 | 2042 ft | 220 kts | 65° |
| 2026-05-01 14:57 | 38.93433 | 1.99547 | 2041 ft | 219 kts | 66° |
| 2026-05-01 14:57 | 38.94060 | 2.01324 | 2039 ft | 219 kts | 66° |
| 2026-05-01 14:58 | 38.94684 | 2.03111 | 2041 ft | 219 kts | 66° |
| 2026-05-01 14:58 | 38.95301 | 2.04900 | 2041 ft | 219 kts | 66° |
| 2026-05-01 14:58 | 38.95919 | 2.06708 | 2041 ft | 220 kts | 67° |
| 2026-05-01 14:58 | 38.96520 | 2.08488 | 2041 ft | 220 kts | 67° |
| 2026-05-01 14:59 | 38.97131 | 2.10315 | 2042 ft | 220 kts | 67° |
| 2026-05-01 14:59 | 38.97726 | 2.12113 | 2042 ft | 220 kts | 68° |
| 2026-05-01 14:59 | 38.98407 | 2.13845 | 2019 ft | 222 kts | 50° |
| 2026-05-01 14:59 | 38.99776 | 2.14743 | 2053 ft | 224 kts | 19° |
| 2026-05-01 15:00 | 39.02780 | 2.15896 | 2042 ft | 225 kts | 19° |
| 2026-05-01 15:00 | 39.04286 | 2.16462 | 2041 ft | 225 kts | 19° |
| 2026-05-01 15:00 | 39.05780 | 2.17022 | 2040 ft | 225 kts | 19° |
| 2026-05-01 15:01 | 39.07276 | 2.17587 | 2041 ft | 225 kts | 19° |
| 2026-05-01 15:01 | 39.08784 | 2.18157 | 2042 ft | 226 kts | 19° |
| 2026-05-01 15:01 | 39.10295 | 2.18728 | 2040 ft | 226 kts | 19° |
| 2026-05-01 15:01 | 39.11803 | 2.19300 | 2042 ft | 226 kts | 19° |
| 2026-05-01 15:02 | 39.13311 | 2.19874 | 2043 ft | 226 kts | 19° |
| 2026-05-01 15:02 | 39.13812 | 2.20064 | 2044 ft | 226 kts | 19° |
| 2026-05-01 15:02 | 39.16345 | 2.21027 | 2046 ft | 226 kts | 19° |
| 2026-05-01 15:02 | 39.17851 | 2.21597 | 2050 ft | 226 kts | 19° |
| 2026-05-01 15:03 | 39.19374 | 2.22168 | 2055 ft | 227 kts | 19° |
| 2026-05-01 15:03 | 39.20875 | 2.22734 | 2058 ft | 227 kts | 19° |
| 2026-05-01 15:03 | 39.22395 | 2.23310 | 2061 ft | 228 kts | 19° |
| 2026-05-01 15:03 | 39.23931 | 2.23896 | 2063 ft | 228 kts | 19° |
| 2026-05-01 15:04 | 39.25448 | 2.24479 | 2062 ft | 229 kts | 19° |
| 2026-05-01 15:04 | 39.26987 | 2.25074 | 2063 ft | 229 kts | 19° |
| 2026-05-01 15:04 | 39.28518 | 2.25662 | 2063 ft | 229 kts | 19° |
| 2026-05-01 15:04 | 39.30060 | 2.26251 | 2064 ft | 230 kts | 19° |
| 2026-05-01 15:05 | 39.31583 | 2.26830 | 2064 ft | 230 kts | 19° |
| 2026-05-01 15:05 | 39.33119 | 2.27415 | 2064 ft | 230 kts | 19° |
| 2026-05-01 15:05 | 39.34646 | 2.28024 | 2063 ft | 229 kts | 22° |
| 2026-05-01 15:05 | 39.36160 | 2.28723 | 2065 ft | 229 kts | 22° |
| 2026-05-01 15:06 | 39.37672 | 2.29425 | 2065 ft | 230 kts | 22° |
| 2026-05-01 15:06 | 39.39175 | 2.30119 | 2066 ft | 230 kts | 22° |
| 2026-05-01 15:06 | 39.40679 | 2.30814 | 2066 ft | 230 kts | 22° |
| 2026-05-01 15:06 | 39.42195 | 2.31514 | 2063 ft | 230 kts | 22° |
| 2026-05-01 15:07 | 39.43702 | 2.32206 | 2059 ft | 230 kts | 22° |
| 2026-05-01 15:07 | 39.45212 | 2.32900 | 2057 ft | 230 kts | 22° |
| 2026-05-01 15:07 | 39.46718 | 2.33592 | 2057 ft | 230 kts | 22° |
| 2026-05-01 15:07 | 39.48230 | 2.34286 | 2057 ft | 230 kts | 22° |
| 2026-05-01 15:08 | 39.49726 | 2.34978 | 2057 ft | 230 kts | 22° |
| 2026-05-01 15:08 | 39.51244 | 2.35678 | 2057 ft | 229 kts | 22° |
| 2026-05-01 15:08 | 39.52750 | 2.36378 | 1885 ft | 236 kts | 22° |
| 2026-05-01 15:08 | 39.54295 | 2.37219 | 1568 ft | 235 kts | 32° |
| 2026-05-01 15:09 | 39.55691 | 2.38178 | 1505 ft | 224 kts | 31° |
| 2026-05-01 15:09 | 39.57003 | 2.39174 | 1503 ft | 215 kts | 37° |
| 2026-05-01 15:09 | 39.58247 | 2.40247 | 1474 ft | 210 kts | 36° |
| 2026-05-01 15:09 | 39.59279 | 2.41516 | 1504 ft | 202 kts | 51° |
| 2026-05-01 15:10 | 39.60069 | 2.42959 | 1579 ft | 194 kts | 69° |
| 2026-05-01 15:10 | 39.60259 | 2.46282 | 1392 ft | 169 kts | 93° |
| 2026-05-01 15:10 | 39.60168 | 2.47872 | 1330 ft | 179 kts | 92° |
| 2026-05-01 15:11 | 39.60406 | 2.49377 | 1461 ft | 168 kts | 76° |
| 2026-05-01 15:11 | 39.61164 | 2.52381 | 1469 ft | 187 kts | 70° |
| 2026-05-01 15:11 | 39.61602 | 2.54034 | 1264 ft | 195 kts | 74° |
| 2026-05-01 15:12 | 39.61951 | 2.55731 | 1223 ft | 193 kts | 80° |
| 2026-05-01 15:12 | 39.62536 | 2.59080 | 946 ft | 190 kts | 70° |
| 2026-05-01 15:12 | 39.63039 | 2.60772 | 802 ft | 208 kts | 75° |
| 2026-05-01 15:13 | 39.63460 | 2.65478 | 636 ft | 149 kts | 122° |
| 2026-05-01 15:14 | 39.62099 | 2.67622 | 549 ft | 173 kts | 128° |
| 2026-05-01 15:14 | 39.61309 | 2.68890 | 593 ft | 186 kts | 130° |
| 2026-05-01 15:14 | 39.59678 | 2.67961 | 486 ft | 113 kts | 205° |
| 2026-05-01 15:15 | 39.59298 | 2.69028 | 293 ft | 92 kts | 85° |
| 2026-05-01 15:15 | 39.59860 | 2.70217 | 139 ft | 30 kts | 54° |
| 2026-05-01 15:16 | 39.60029 | 2.70487 | 151 ft | 18 kts | 44° |
| 2026-05-01 15:16 | 39.60184 | 2.70485 | 157 ft | 13 kts | 287° |